Time;durP1;ratioP1;P1;durP2;ratioP2;P2;SDS_P1;SDS_P2;PMS_P1;PMS_P2;Temp;Humidity;BMP_temperature;BMP_pressure;BME280_temperature;BME280_humidity;BME280_pressure;Samples;Min_cycle;Max_cycle;Signal;HPM_P1;HPM_P2
2022/05/02 00:02:18;;;;;;;5.25;3.28;;;17.80;59.00;;;;;;6369373;22;20416;-78
2022/05/02 00:04:44;;;;;;;3.97;2.40;;;17.70;59.60;;;;;;6369159;22;20476;-78
2022/05/02 00:07:09;;;;;;;3.55;2.78;;;17.70;59.00;;;;;;6369221;22;20301;-79
2022/05/02 00:09:35;;;;;;;3.33;3.03;;;17.70;59.70;;;;;;6370186;22;20012;-79
2022/05/02 00:12:01;;;;;;;3.42;2.85;;;17.70;59.90;;;;;;6369047;22;20006;-78
2022/05/02 00:14:27;;;;;;;2.72;2.45;;;17.70;60.00;;;;;;6341040;22;20002;-78
2022/05/02 00:16:52;;;;;;;4.18;2.60;;;17.70;59.70;;;;;;6368841;22;20025;-82
2022/05/02 00:19:18;;;;;;;3.90;2.95;;;17.80;59.50;;;;;;6369101;22;20044;-82
2022/05/02 00:21:43;;;;;;;3.38;2.53;;;17.80;59.50;;;;;;6370137;22;19994;-81
2022/05/02 00:24:09;;;;;;;3.17;2.88;;;17.90;59.00;;;;;;6370240;22;20507;-82
2022/05/02 00:26:35;;;;;;;4.43;3.00;;;18.00;59.00;;;;;;6369833;22;19997;-83
2022/05/02 00:29:01;;;;;;;4.28;2.75;;;18.00;59.40;;;;;;6370089;22;20073;-81
2022/05/02 00:31:27;;;;;;;4.05;3.28;;;18.00;59.20;;;;;;6370009;22;20484;-81
2022/05/02 00:33:52;;;;;;;3.30;3.00;;;18.00;59.20;;;;;;6369856;22;19998;-82
2022/05/02 00:36:18;;;;;;;8.20;4.18;;;17.90;59.20;;;;;;6368985;22;20044;-82
2022/05/02 00:38:44;;;;;;;3.55;3.22;;;17.80;60.20;;;;;;6369268;22;20001;-80
2022/05/02 00:41:11;;;;;;;4.10;3.25;;;17.80;60.10;;;;;;6369640;22;20447;-81
2022/05/02 00:43:39;;;;;;;6.70;3.22;;;17.70;60.30;;;;;;6342024;22;20413;-81
2022/05/02 00:46:19;;;;;;;4.10;3.70;;;17.60;60.20;;;;;;6342004;22;20451;-81
2022/05/02 00:48:46;;;;;;;4.20;3.70;;;17.60;61.40;;;;;;6341200;22;20002;-81
2022/05/02 00:51:12;;;;;;;3.70;3.25;;;17.60;60.90;;;;;;6369085;22;20424;-80
2022/05/02 00:53:39;;;;;;;7.93;4.00;;;17.60;60.60;;;;;;6369666;22;20009;-81
2022/05/02 00:56:06;;;;;;;4.07;3.67;;;17.60;61.30;;;;;;6369225;22;20416;-81
2022/05/02 00:58:35;;;;;;;5.50;3.95;;;17.70;61.40;;;;;;6368456;22;20471;-82
2022/05/02 01:01:01;;;;;;;4.00;3.60;;;17.70;60.70;;;;;;6368903;22;20063;-81
2022/05/02 01:03:27;;;;;;;6.70;4.40;;;17.70;61.70;;;;;;6369581;22;19995;-81
2022/05/02 01:08:37;;;;;;;4.80;3.83;;;17.60;61.90;;;;;;6369100;22;20458;-81
2022/05/02 01:11:03;;;;;;;4.80;4.05;;;17.60;61.80;;;;;;6369718;22;20002;-81
2022/05/02 01:13:38;;;;;;;7.68;5.63;;;17.60;61.60;;;;;;6369046;22;20002;-82
2022/05/02 01:16:28;;;;;;;4.30;3.90;;;17.60;62.60;;;;;;6368428;22;20454;-80
2022/05/02 01:18:56;;;;;;;6.03;5.38;;;17.60;62.30;;;;;;6348682;22;20002;-80
2022/05/02 01:21:28;;;;;;;4.80;4.40;;;17.50;62.70;;;;;;6368876;22;19999;-79
2022/05/02 01:23:59;;;;;;;4.65;3.72;;;17.50;62.50;;;;;;6369406;22;20082;-80
2022/05/02 01:26:24;;;;;;;4.63;4.22;;;17.60;62.30;;;;;;6368279;22;20006;-80
2022/05/02 01:28:56;;;;;;;6.60;4.05;;;17.60;61.90;;;;;;6368904;22;20044;-82
2022/05/02 01:31:22;;;;;;;4.78;4.15;;;17.70;61.80;;;;;;6341982;22;20010;-82
2022/05/02 01:33:49;;;;;;;4.50;3.90;;;17.80;62.00;;;;;;6368702;22;20332;-83
2022/05/02 01:36:16;;;;;;;5.88;4.07;;;17.80;61.60;;;;;;6341126;22;20006;-80
2022/05/02 01:38:42;;;;;;;4.20;3.75;;;17.80;62.40;;;;;;6369330;22;20474;-81
2022/05/02 01:41:09;;;;;;;4.50;4.10;;;17.80;61.50;;;;;;6368459;22;19998;-81
2022/05/02 01:43:35;;;;;;;4.57;3.72;;;17.90;61.90;;;;;;6369107;22;20018;-81
2022/05/02 01:46:03;;;;;;;4.88;4.38;;;18.00;61.30;;;;;;6368872;22;20032;-81
2022/05/02 01:48:28;;;;;;;4.30;3.88;;;18.00;60.50;;;;;;6369358;22;20014;-81
2022/05/02 01:50:55;;;;;;;3.70;3.30;;;18.00;60.60;;;;;;6368395;22;20040;-81
2022/05/02 01:53:21;;;;;;;3.90;3.50;;;18.00;60.40;;;;;;6368344;22;20003;-82
2022/05/02 01:55:47;;;;;;;3.90;3.55;;;18.00;60.20;;;;;;6340734;22;20010;-81
2022/05/02 01:58:13;;;;;;;5.90;3.30;;;18.00;60.20;;;;;;6368390;22;20013;-81
2022/05/02 02:00:38;;;;;;;4.28;3.25;;;18.10;60.10;;;;;;6368481;22;20077;-79
2022/05/02 02:03:04;;;;;;;4.00;3.50;;;18.10;59.90;;;;;;6340304;22;20006;-81
2022/05/02 02:05:49;;;;;;;4.15;3.00;;;18.20;59.80;;;;;;6368516;22;20055;-82
2022/05/02 02:08:27;;;;;;;3.90;3.40;;;18.20;59.60;;;;;;6368583;22;20073;-82
2022/05/02 02:10:55;;;;;;;5.57;2.95;;;18.30;59.40;;;;;;6369242;22;20002;-84
2022/05/02 02:13:21;;;;;;;3.97;3.00;;;18.30;59.60;;;;;;6369678;22;20071;-81
2022/05/02 02:15:47;;;;;;;4.07;2.90;;;18.20;59.50;;;;;;6370002;22;20416;-80
2022/05/02 02:18:13;;;;;;;3.03;2.65;;;18.30;60.00;;;;;;6367071;22;20005;-78
2022/05/02 02:20:43;;;;;;;3.30;2.72;;;18.20;59.40;;;;;;6368615;22;20051;-80
2022/05/02 02:23:09;;;;;;;3.50;2.50;;;18.20;59.50;;;;;;6340206;22;20006;-80
2022/05/02 02:25:37;;;;;;;4.78;3.42;;;18.20;59.50;;;;;;6369331;22;20003;-84
2022/05/02 02:28:03;;;;;;;2.70;2.50;;;18.20;59.70;;;;;;6368901;22;20031;-84
2022/05/02 02:30:31;;;;;;;2.50;2.30;;;18.20;59.40;;;;;;6341095;22;20003;-82
2022/05/02 02:32:58;;;;;;;3.53;3.22;;;18.20;59.30;;;;;;6368635;22;20029;-82
2022/05/02 02:35:24;;;;;;;3.53;3.22;;;18.20;59.50;;;;;;6368626;22;19998;-82
2022/05/02 02:37:50;;;;;;;5.53;3.70;;;18.10;59.30;;;;;;6367760;22;20013;-80
2022/05/02 02:40:17;;;;;;;4.05;3.17;;;18.00;59.30;;;;;;6368192;22;19998;-80
2022/05/02 02:42:43;;;;;;;4.20;3.33;;;18.00;59.30;;;;;;6368468;22;20350;-80
2022/05/02 02:45:10;;;;;;;5.10;3.60;;;18.10;59.20;;;;;;6367878;22;20044;-80
2022/05/02 02:47:36;;;;;;;4.55;3.10;;;18.10;59.50;;;;;;6368822;22;19998;-82
2022/05/02 02:50:02;;;;;;;4.15;3.25;;;18.20;59.20;;;;;;6368596;22;20006;-81
2022/05/02 02:52:27;;;;;;;3.15;2.83;;;18.20;59.10;;;;;;6341072;22;20009;-81
2022/05/02 02:54:53;;;;;;;3.28;2.92;;;18.20;59.10;;;;;;6367799;22;19998;-81
2022/05/02 02:57:18;;;;;;;4.88;3.30;;;18.10;59.30;;;;;;6340449;22;20002;-80
2022/05/02 02:59:44;;;;;;;4.07;3.03;;;18.10;59.50;;;;;;6367844;22;20006;-81
2022/05/02 03:02:10;;;;;;;3.13;2.58;;;18.00;59.50;;;;;;6368573;22;20427;-81
2022/05/02 03:07:25;;;;;;;4.85;3.22;;;18.00;59.60;;;;;;6367840;22;20017;-80
2022/05/02 03:09:51;;;;;;;3.78;3.10;;;17.90;60.20;;;;;;6367528;22;20028;-80
2022/05/02 03:12:17;;;;;;;3.00;2.70;;;17.90;59.80;;;;;;6367734;22;20467;-82
2022/05/02 03:14:43;;;;;;;3.63;2.97;;;17.90;59.80;;;;;;6340225;22;20085;-81
2022/05/02 03:17:09;;;;;;;4.32;3.50;;;18.00;59.70;;;;;;6340128;22;20029;-80
2022/05/02 03:19:35;;;;;;;4.30;3.58;;;18.00;61.00;;;;;;6367183;22;20356;-81
2022/05/02 03:22:00;;;;;;;3.75;3.30;;;17.80;60.30;;;;;;6340410;22;20006;-81
2022/05/02 03:24:26;;;;;;;2.90;2.60;;;17.80;60.30;;;;;;6368226;22;20405;-80
2022/05/02 03:26:52;;;;;;;3.40;3.10;;;17.80;60.60;;;;;;6368668;22;20021;-81
2022/05/02 03:29:17;;;;;;;3.47;3.17;;;17.90;60.30;;;;;;6368940;22;20463;-78
2022/05/02 03:31:43;;;;;;;3.28;2.97;;;17.90;60.30;;;;;;6367741;22;20001;-80
2022/05/02 03:34:08;;;;;;;3.13;2.70;;;17.90;60.30;;;;;;6368106;22;20001;-80
2022/05/02 03:36:35;;;;;;;3.83;3.10;;;17.90;60.40;;;;;;6369210;22;20054;-80
2022/05/02 03:39:02;;;;;;;3.13;2.83;;;17.90;60.30;;;;;;6369188;22;20007;-80
2022/05/02 03:41:27;;;;;;;3.58;2.47;;;17.90;60.30;;;;;;6342350;22;20005;-80
2022/05/02 03:43:53;;;;;;;2.78;2.58;;;17.90;60.10;;;;;;6370250;22;19999;-80
2022/05/02 03:46:19;;;;;;;3.40;3.03;;;17.90;60.50;;;;;;6370650;22;20416;-81
2022/05/02 03:48:44;;;;;;;3.95;3.28;;;17.90;60.80;;;;;;6369625;22;20028;-82
2022/05/02 03:51:11;;;;;;;3.78;2.67;;;17.80;60.40;;;;;;6369017;22;20002;-82
2022/05/02 03:53:37;;;;;;;3.17;2.88;;;17.80;60.40;;;;;;6370613;22;20005;-81
2022/05/02 03:56:03;;;;;;;3.22;2.55;;;17.80;60.90;;;;;;6370858;22;20002;-82
2022/05/02 03:58:28;;;;;;;2.75;2.55;;;17.80;60.90;;;;;;6369071;22;20011;-82
2022/05/02 04:00:54;;;;;;;3.78;2.70;;;17.70;60.70;;;;;;6371085;22;20473;-84
2022/05/02 04:03:20;;;;;;;3.38;2.45;;;17.80;60.60;;;;;;6371501;22;20451;-84
2022/05/02 04:05:46;;;;;;;3.05;2.42;;;17.80;60.50;;;;;;6371734;22;20003;-84
2022/05/02 04:08:11;;;;;;;3.15;2.85;;;17.80;60.20;;;;;;6371569;22;20006;-78
2022/05/02 04:10:37;;;;;;;5.07;2.40;;;17.80;60.00;;;;;;6368866;22;20029;-78
2022/05/02 04:13:03;;;;;;;2.78;2.28;;;17.80;60.90;;;;;;6341134;22;20002;-77
2022/05/02 04:15:29;;;;;;;2.67;2.10;;;17.80;60.30;;;;;;6369132;22;20073;-76
2022/05/02 04:17:56;;;;;;;2.92;2.22;;;17.70;60.80;;;;;;6369513;22;20414;-78
2022/05/02 04:20:21;;;;;;;3.00;2.50;;;17.60;61.10;;;;;;6369755;22;20022;-77
2022/05/02 04:22:47;;;;;;;1.98;1.77;;;17.60;62.00;;;;;;6368415;22;20428;-78
2022/05/02 04:25:13;;;;;;;2.42;1.80;;;17.50;61.20;;;;;;6369068;22;20066;-78
2022/05/02 04:27:39;;;;;;;1.80;1.70;;;17.60;61.00;;;;;;6369159;22;20005;-78
2022/05/02 04:30:06;;;;;;;3.50;2.20;;;17.50;61.00;;;;;;6369653;22;20416;-78
2022/05/02 04:32:31;;;;;;;2.50;2.08;;;17.50;61.50;;;;;;6368621;22;20052;-77
2022/05/02 04:34:58;;;;;;;7.30;2.30;;;17.50;61.30;;;;;;6369049;22;20010;-78
2022/05/02 04:37:24;;;;;;;3.17;2.38;;;17.50;61.40;;;;;;6369126;22;19998;-77
2022/05/02 04:39:51;;;;;;;4.60;3.20;;;17.60;61.70;;;;;;6369545;22;19998;-78
2022/05/02 04:42:17;;;;;;;5.32;2.97;;;17.50;62.20;;;;;;6369151;22;20040;-78
2022/05/02 04:44:43;;;;;;;3.30;3.00;;;17.40;61.90;;;;;;6369347;22;20032;-77
2022/05/02 04:47:09;;;;;;;4.18;3.00;;;17.40;62.70;;;;;;6368091;22;20371;-78
2022/05/02 04:49:34;;;;;;;4.38;3.55;;;17.40;61.80;;;;;;6369547;22;20452;-78
2022/05/02 04:52:00;;;;;;;4.82;3.35;;;17.40;62.90;;;;;;6368814;22;20006;-78
2022/05/02 04:54:26;;;;;;;3.20;2.65;;;17.20;63.30;;;;;;6367429;22;20002;-77
2022/05/02 04:56:51;;;;;;;4.72;2.95;;;17.20;63.40;;;;;;6368411;22;20082;-76
2022/05/02 04:59:17;;;;;;;3.55;3.25;;;17.10;63.90;;;;;;6369723;22;20389;-75
2022/05/02 05:01:43;;;;;;;4.40;2.97;;;16.90;64.50;;;;;;6370532;22;20030;-76
2022/05/02 05:04:09;;;;;;;2.70;2.28;;;16.80;65.40;;;;;;6370423;22;20416;-75
2022/05/02 05:06:35;;;;;;;4.13;3.17;;;16.70;65.10;;;;;;6371162;22;20006;-75
2022/05/02 05:09:01;;;;;;;3.30;2.30;;;16.70;65.90;;;;;;6369753;22;20009;-75
2022/05/02 05:11:45;;;;;;;2.65;2.42;;;16.70;65.30;;;;;;6369156;22;20021;-75
2022/05/02 05:17:45;;;;;;;5.55;2.70;;;16.90;65.50;;;;;;6367255;22;20339;-78
2022/05/02 05:20:21;;;;;;;2.70;2.30;;;16.90;64.90;;;;;;6369310;22;20405;-77
2022/05/02 05:23:08;;;;;;;3.38;2.08;;;17.00;65.00;;;;;;6369776;22;20083;-80
2022/05/02 05:25:51;;;;;;;2.17;1.98;;;17.00;65.30;;;;;;6369953;22;19999;-78
2022/05/02 05:28:35;;;;;;;3.25;2.40;;;16.90;66.00;;;;;;6369256;22;19998;-76
2022/05/02 05:31:29;;;;;;;3.05;2.50;;;17.00;65.60;;;;;;6370268;22;20002;-77
2022/05/02 05:34:45;;;;;;;3.08;2.50;;;17.00;65.60;;;;;;6370759;22;20003;-79
2022/05/02 05:37:41;;;;;;;3.38;2.58;;;17.20;65.70;;;;;;6274137;22;20013;-79
2022/05/02 05:40:16;;;;;;;3.70;2.63;;;17.30;65.70;;;;;;6370829;22;20098;-78
2022/05/02 05:43:06;;;;;;;4.05;2.72;;;17.40;64.50;;;;;;6341811;22;20059;-78
2022/05/02 05:45:59;;;;;;;5.03;2.60;;;17.50;64.50;;;;;;6370471;22;20454;-78
2022/05/02 05:48:54;;;;;;;4.70;2.67;;;17.50;64.60;;;;;;6368847;22;20106;-77
2022/05/02 05:51:28;;;;;;;4.88;3.17;;;17.60;65.40;;;;;;6370754;22;20025;-80
2022/05/02 05:54:09;;;;;;;5.25;2.90;;;17.70;64.30;;;;;;6343026;22;20056;-84
2022/05/02 05:56:47;;;;;;;5.10;2.72;;;17.80;64.10;;;;;;6342280;22;20002;-78
2022/05/02 05:59:32;;;;;;;4.50;2.67;;;17.90;63.90;;;;;;6369146;22;20013;-77
2022/05/02 06:02:23;;;;;;;3.80;3.30;;;17.90;64.00;;;;;;6342118;22;20325;-79
2022/05/02 06:04:50;;;;;;;4.13;3.50;;;17.90;64.20;;;;;;6370065;22;20324;-82
2022/05/02 06:07:20;;;;;;;3.50;2.88;;;17.90;64.80;;;;;;6369891;22;20052;-79
2022/05/02 06:09:48;;;;;;;3.45;2.72;;;17.80;65.00;;;;;;6369801;22;20081;-79
2022/05/02 06:12:15;;;;;;;3.35;2.63;;;17.90;65.00;;;;;;6369827;22;19998;-79
2022/05/02 06:20:20;;;;;;;2.33;2.10;;;17.90;65.30;;;;;;6369039;22;20009;-79
2022/05/02 06:22:46;;;;;;;2.38;2.05;;;17.90;64.80;;;;;;6370066;22;19995;-79
2022/05/02 06:25:13;;;;;;;2.45;2.00;;;18.00;65.00;;;;;;6370472;22;20425;-75
2022/05/02 06:27:42;;;;;;;2.50;2.10;;;18.00;65.10;;;;;;6370092;22;20051;-75
2022/05/02 06:30:09;;;;;;;2.30;1.90;;;18.10;65.10;;;;;;6370064;22;20442;-76
2022/05/02 06:32:42;;;;;;;1.90;1.70;;;18.20;64.70;;;;;;6370041;22;20002;-75
2022/05/02 06:35:08;;;;;;;2.53;2.25;;;18.20;64.90;;;;;;6370015;22;20009;-75
2022/05/02 06:38:07;;;;;;;3.70;2.00;;;18.20;64.60;;;;;;6369820;22;20002;-75
2022/05/02 06:40:51;;;;;;;1.90;1.70;;;18.30;64.40;;;;;;6370470;22;20016;-75
2022/05/02 06:43:32;;;;;;;2.60;2.25;;;18.30;63.90;;;;;;6370421;22;20027;-75
2022/05/02 06:46:17;;;;;;;2.35;2.15;;;18.40;64.20;;;;;;6367718;22;20491;-74
2022/05/02 06:48:49;;;;;;;2.72;2.17;;;18.40;64.10;;;;;;6369470;22;20002;-75
2022/05/02 06:51:38;;;;;;;2.65;2.20;;;18.50;63.80;;;;;;6370342;22;19999;-74
2022/05/02 06:54:24;;;;;;;2.15;1.90;;;18.50;63.40;;;;;;6369646;22;20136;-76
2022/05/02 06:57:20;;;;;;;31.85;4.32;;;18.60;63.00;;;;;;6368847;22;20016;-75
2022/05/02 06:59:56;;;;;;;37.60;5.00;;;18.70;63.00;;;;;;6338044;22;20011;-79
2022/05/02 07:03:25;;;;;;;2.90;1.77;;;18.80;63.00;;;;;;6337624;22;19999;-79
2022/05/02 07:06:10;;;;;;;2.05;1.70;;;18.90;62.60;;;;;;6242634;23;20012;-79
2022/05/02 07:08:53;;;;;;;1.60;1.50;;;19.00;62.30;;;;;;6217258;23;20492;-78
2022/05/02 07:11:21;;;;;;;1.88;1.70;;;19.00;61.90;;;;;;6311328;22;20007;-75
2022/05/02 07:13:54;;;;;;;1.67;1.58;;;19.00;61.30;;;;;;6339036;22;20340;-75
2022/05/02 07:16:22;;;;;;;4.88;2.03;;;19.10;61.40;;;;;;6336596;22;20010;-79
2022/05/02 07:19:22;;;;;;;2.22;1.95;;;19.20;61.00;;;;;;6339983;22;19995;-79
2022/05/02 07:21:53;;;;;;;1.83;1.73;;;19.40;60.40;;;;;;6339958;22;19995;-79
2022/05/02 07:24:24;;;;;;;2.10;1.88;;;19.50;60.20;;;;;;6339970;22;20002;-79
2022/05/02 07:27:14;;;;;;;2.33;2.13;;;19.50;60.00;;;;;;6340030;22;20011;-79
2022/05/02 07:29:42;;;;;;;2.43;2.10;;;19.60;58.40;;;;;;6338099;22;19991;-79
2022/05/02 07:32:10;;;;;;;2.53;1.90;;;19.50;59.00;;;;;;6339317;22;20005;-79
2022/05/02 07:34:38;;;;;;;1.98;1.75;;;19.60;59.00;;;;;;6339299;22;20030;-79
2022/05/02 07:37:05;;;;;;;1.80;1.50;;;19.70;58.70;;;;;;6339027;22;20081;-78
2022/05/02 07:39:33;;;;;;;1.67;1.48;;;19.80;58.50;;;;;;6338969;22;19999;-78
2022/05/02 07:42:00;;;;;;;2.97;2.13;;;19.80;58.30;;;;;;6339499;22;19999;-78
2022/05/02 07:44:31;;;;;;;2.80;1.70;;;19.90;56.90;;;;;;6333605;22;20116;-78
2022/05/02 07:47:01;;;;;;;1.90;1.67;;;20.00;57.20;;;;;;6335885;22;20051;-78
2022/05/02 07:49:28;;;;;;;2.42;1.90;;;20.00;57.20;;;;;;6336143;22;20003;-78
2022/05/02 07:51:57;;;;;;;2.30;2.10;;;20.00;57.10;;;;;;6335646;22;20037;-78
2022/05/02 07:54:28;;;;;;;2.55;1.85;;;20.00;55.20;;;;;;6335975;22;20069;-78
2022/05/02 07:57:01;;;;;;;2.20;2.00;;;20.00;56.50;;;;;;6335835;22;20010;-79
2022/05/02 07:59:49;;;;;;;1.92;1.70;;;20.20;56.20;;;;;;6366254;22;20462;-80
2022/05/02 08:02:16;;;;;;;2.50;2.08;;;20.30;55.90;;;;;;6367722;22;20476;-79
2022/05/02 08:04:44;;;;;;;2.75;1.30;;;20.30;54.40;;;;;;6367948;22;19999;-78
2022/05/02 08:07:34;;;;;;;2.03;1.77;;;20.40;55.30;;;;;;6367375;22;20077;-78
2022/05/02 08:10:24;;;;;;;1.75;1.10;;;20.50;53.80;;;;;;6367304;22;20062;-78
2022/05/02 08:13:03;;;;;;;6.85;1.52;;;20.60;54.80;;;;;;6367868;22;20610;-78
2022/05/02 08:15:43;;;;;;;2.00;1.10;;;20.50;53.00;;;;;;6367543;22;20432;-78
2022/05/02 08:18:27;;;;;;;2.90;2.17;;;20.60;54.20;;;;;;6367408;22;20025;-79
2022/05/02 08:21:00;;;;;;;2.88;1.77;;;20.60;54.20;;;;;;6367227;22;20009;-79
2022/05/02 08:29:33;;;;;;;2.58;1.88;;;20.90;55.10;;;;;;6368151;22;20051;-79
2022/05/02 08:32:10;;;;;;;2.03;1.63;;;20.90;55.00;;;;;;6368657;22;20508;-79
2022/05/02 08:34:41;;;;;;;3.08;1.77;;;21.00;55.60;;;;;;6341321;22;20432;-79
2022/05/02 08:37:28;;;;;;;2.75;1.92;;;21.10;55.80;;;;;;6370998;22;19998;-79
2022/05/02 08:40:25;;;;;;;2.40;1.95;;;21.20;55.50;;;;;;6342857;22;20047;-79
2022/05/02 08:43:25;;;;;;;2.20;2.00;;;21.20;55.10;;;;;;6370669;22;20002;-79
2022/05/02 08:46:14;;;;;;;4.25;1.73;;;21.20;54.90;;;;;;6371063;22;20359;-79
2022/05/02 08:49:33;;;;;;;2.15;1.52;;;21.10;55.30;;;;;;6371115;22;20059;-79
2022/05/02 08:52:16;;;;;;;2.30;1.58;;;21.20;55.30;;;;;;6371104;22;19994;-79
2022/05/02 08:55:12;;;;;;;3.03;1.88;;;21.20;56.10;;;;;;6369964;22;20025;-79
2022/05/02 08:58:05;;;;;;;2.30;1.38;;;21.30;55.20;;;;;;6342195;22;20042;-75
2022/05/02 09:00:51;;;;;;;1.30;1.20;;;21.40;54.70;;;;;;6370707;22;20006;-75
2022/05/02 09:03:47;;;;;;;3.00;1.40;;;21.60;54.30;;;;;;6370826;22;19999;-75
2022/05/02 09:06:40;;;;;;;1.63;1.52;;;21.80;54.60;;;;;;6370665;22;20306;-75
2022/05/02 09:09:35;;;;;;;2.33;1.60;;;22.00;53.80;;;;;;6342121;22;20090;-75
2022/05/02 09:12:54;;;;;;;1.10;1.00;;;22.10;51.90;;;;;;6344063;22;20010;-75
2022/05/02 09:15:53;;;;;;;1.95;1.20;;;22.20;52.10;;;;;;6213365;23;20047;-74
2022/05/02 09:18:28;;;;;;;1.38;1.20;;;22.40;51.40;;;;;;6370498;22;19998;-75
2022/05/02 09:20:57;;;;;;;1.95;1.00;;;22.50;51.60;;;;;;6370217;22;20026;-75
2022/05/02 09:23:35;;;;;;;1.20;1.10;;;22.50;51.40;;;;;;6370901;22;19999;-75
2022/05/02 09:26:13;;;;;;;1.15;1.05;;;22.50;49.50;;;;;;6342475;22;20442;-75
2022/05/02 09:28:38;;;;;;;1.45;1.10;;;22.30;50.00;;;;;;6370320;22;20302;-75
2022/05/02 09:31:20;;;;;;;1.15;1.05;;;22.30;51.30;;;;;;6370220;22;20005;-75
2022/05/02 09:34:03;;;;;;;1.30;0.80;;;22.30;50.70;;;;;;6342399;22;20036;-75
2022/05/02 09:36:44;;;;;;;2.83;1.20;;;22.20;50.60;;;;;;6369766;22;20037;-75
2022/05/02 09:39:24;;;;;;;1.10;0.95;;;22.30;50.70;;;;;;6370561;22;20424;-74
2022/05/02 09:42:10;;;;;;;1.35;1.10;;;22.30;49.30;;;;;;6369049;22;20065;-75
2022/05/02 09:51:20;;;;;;;1.08;0.90;;;22.80;49.80;;;;;;6347335;22;20083;-75
2022/05/02 09:53:54;;;;;;;1.48;1.05;;;23.00;48.40;;;;;;6366912;22;19994;-75
2022/05/02 09:56:40;;;;;;;1.25;1.10;;;23.10;48.50;;;;;;6369885;22;20014;-76
2022/05/02 09:59:07;;;;;;;1.38;1.20;;;23.30;48.30;;;;;;6369620;22;20010;-75
2022/05/02 10:01:34;;;;;;;1.30;1.13;;;23.50;48.70;;;;;;6341654;22;20004;-75
2022/05/02 10:04:27;;;;;;;1.25;1.13;;;23.50;46.90;;;;;;6341691;22;20009;-75
2022/05/02 10:06:54;;;;;;;1.20;1.10;;;23.60;48.20;;;;;;6369940;22;20006;-75
2022/05/02 10:09:45;;;;;;;1.45;1.20;;;23.70;47.20;;;;;;6369357;22;20447;-75
2022/05/02 10:12:40;;;;;;;1.33;1.20;;;23.70;47.10;;;;;;6341233;22;20085;-76
2022/05/02 10:15:26;;;;;;;1.08;0.95;;;23.70;47.70;;;;;;6313795;22;20022;-75
2022/05/02 10:17:51;;;;;;;1.67;1.13;;;23.90;47.90;;;;;;6369553;22;20325;-75
2022/05/02 10:20:22;;;;;;;2.60;1.10;;;24.00;46.00;;;;;;6342277;22;19998;-75
2022/05/02 10:22:50;;;;;;;1.45;0.82;;;24.00;46.20;;;;;;6333084;22;19998;-75
2022/05/02 10:25:22;;;;;;;1.25;1.00;;;24.00;47.00;;;;;;6369102;22;20010;-75
2022/05/02 10:28:27;;;;;;;2.67;1.00;;;24.20;47.40;;;;;;6367297;22;20002;-75
2022/05/02 10:31:05;;;;;;;1.38;1.08;;;24.30;46.80;;;;;;6270209;22;20022;-75
2022/05/02 10:33:41;;;;;;;1.00;0.90;;;24.50;47.20;;;;;;6366801;22;20142;-78
2022/05/02 10:36:09;;;;;;;1.25;0.90;;;24.60;46.20;;;;;;6368895;22;20320;-78
2022/05/02 10:38:51;;;;;;;1.55;0.90;;;24.50;45.90;;;;;;6369822;22;19998;-78
2022/05/02 10:41:23;;;;;;;2.40;1.42;;;24.40;46.30;;;;;;6341596;22;20006;-79
2022/05/02 10:43:53;;;;;;;1.02;0.93;;;24.20;46.20;;;;;;6368579;22;20047;-75
2022/05/02 10:46:21;;;;;;;0.98;0.88;;;24.10;46.00;;;;;;6369211;22;20025;-75
2022/05/02 10:49:13;;;;;;;0.80;0.80;;;24.10;46.40;;;;;;6369478;22;20032;-75
2022/05/02 10:51:54;;;;;;;1.17;1.08;;;24.20;47.40;;;;;;6367582;22;20005;-75
2022/05/02 10:54:39;;;;;;;1.13;0.90;;;24.40;46.70;;;;;;6367375;22;19998;-75
2022/05/02 10:57:17;;;;;;;1.27;1.00;;;24.50;46.10;;;;;;6369848;22;19998;-75
2022/05/02 10:59:45;;;;;;;1.77;1.35;;;24.70;46.90;;;;;;6335643;22;20126;-74
2022/05/02 11:02:31;;;;;;;2.00;1.27;;;24.70;45.80;;;;;;6335652;22;19999;-75
2022/05/02 11:05:03;;;;;;;1.85;1.30;;;24.60;46.80;;;;;;6336737;22;19998;-74
2022/05/02 11:07:55;;;;;;;1.90;1.17;;;24.80;47.00;;;;;;6337665;22;20003;-75
2022/05/02 11:10:26;;;;;;;1.50;1.27;;;25.00;46.70;;;;;;6336032;22;20318;-75
2022/05/02 11:13:24;;;;;;;1.23;1.13;;;25.20;46.70;;;;;;6337222;22;20003;-76
2022/05/02 11:15:56;;;;;;;1.10;0.90;;;25.40;47.00;;;;;;6268014;22;20033;-76
2022/05/02 11:21:37;;;;;;;1.60;1.48;;;25.80;46.30;;;;;;6335245;22;20018;-76
2022/05/02 11:24:11;;;;;;;1.38;1.27;;;26.00;45.60;;;;;;6337600;22;20003;-76
2022/05/02 11:26:44;;;;;;;1.38;1.27;;;26.20;45.50;;;;;;6337348;22;19999;-76
2022/05/02 11:29:30;;;;;;;3.05;1.65;;;26.50;45.10;;;;;;6336241;22;19999;-76
2022/05/02 11:32:03;;;;;;;2.13;1.25;;;27.10;44.90;;;;;;6334861;22;20003;-76
2022/05/02 11:34:41;;;;;;;3.00;1.42;;;27.70;43.60;;;;;;6337445;22;20466;-76
2022/05/02 11:37:20;;;;;;;1.63;1.40;;;28.30;42.60;;;;;;6337199;22;20006;-77
2022/05/02 11:40:00;;;;;;;1.65;1.40;;;28.50;41.30;;;;;;6334473;22;20052;-77
2022/05/02 11:42:32;;;;;;;;;;;28.60;40.80;;;;;;6338374;22;20000;-76
2022/05/02 11:45:17;;;;;;;1.40;1.30;;;29.00;40.10;;;;;;6337398;22;19898;-78
2022/05/02 11:47:52;;;;;;;2.47;1.52;;;29.50;39.40;;;;;;6335588;22;20002;-77
2022/05/02 11:50:22;;;;;;;1.80;1.40;;;29.80;38.70;;;;;;6333467;22;20103;-77
2022/05/02 11:52:59;;;;;;;1.63;1.52;;;30.20;38.20;;;;;;6337866;22;20070;-76
2022/05/02 11:55:33;;;;;;;2.08;1.65;;;30.30;37.70;;;;;;6337866;22;19999;-77
2022/05/02 11:58:07;;;;;;;2.50;1.35;;;30.40;37.60;;;;;;6351783;22;20340;-77
2022/05/02 12:00:36;;;;;;;1.90;1.48;;;30.40;37.10;;;;;;6342827;22;19998;-78
2022/05/02 12:03:24;;;;;;;1.65;1.52;;;30.60;38.30;;;;;;6369840;22;20383;-79
2022/05/02 12:05:53;;;;;;;2.78;1.60;;;30.80;37.30;;;;;;6340522;22;20006;-78
2022/05/02 12:08:27;;;;;;;2.05;1.70;;;31.00;36.60;;;;;;6371066;22;20070;-78
2022/05/02 12:11:10;;;;;;;3.63;1.55;;;31.20;35.70;;;;;;6369962;22;20005;-77
2022/05/02 12:13:44;;;;;;;2.10;1.70;;;31.30;36.60;;;;;;6343210;22;20097;-77
2022/05/02 12:16:18;;;;;;;1.90;1.50;;;31.30;36.40;;;;;;6343454;22;20301;-77
2022/05/02 12:18:53;;;;;;;3.83;1.48;;;31.50;35.60;;;;;;6342570;22;19998;-77
2022/05/02 12:21:39;;;;;;;2.65;1.67;;;31.60;35.40;;;;;;6370344;22;19998;-80
2022/05/02 12:24:06;;;;;;;2.03;1.83;;;32.00;34.20;;;;;;6343069;22;20047;-80
2022/05/02 12:26:33;;;;;;;2.20;1.55;;;32.20;34.90;;;;;;6368982;22;19998;-79
2022/05/02 12:29:04;;;;;;;1.92;1.80;;;32.30;34.60;;;;;;6369583;22;20010;-79
2022/05/02 12:31:33;;;;;;;2.17;1.70;;;32.50;33.90;;;;;;6369709;22;20006;-80
2022/05/02 12:34:10;;;;;;;4.53;2.05;;;32.80;34.50;;;;;;6341802;22;20016;-77
2022/05/02 12:36:39;;;;;;;3.08;1.70;;;32.90;33.70;;;;;;6366148;22;20012;-79
2022/05/02 12:39:09;;;;;;;2.10;1.90;;;33.10;32.70;;;;;;6340773;22;20006;-79
2022/05/02 12:41:47;;;;;;;2.75;1.90;;;33.10;33.40;;;;;;6370969;22;20291;-78
2022/05/02 12:44:14;;;;;;;2.17;1.98;;;33.20;33.10;;;;;;6342107;22;20006;-79
2022/05/02 12:46:48;;;;;;;1.67;1.52;;;33.50;33.10;;;;;;6341637;22;20063;-79
2022/05/02 12:49:24;;;;;;;3.45;1.90;;;33.70;32.30;;;;;;6370925;22;20002;-79
2022/05/02 12:51:55;;;;;;;3.33;2.05;;;33.80;31.60;;;;;;6341526;22;20002;-78
2022/05/02 12:54:25;;;;;;;8.88;2.50;;;33.80;31.50;;;;;;6369595;22;20020;-79
2022/05/02 13:02:35;;;;;;;;;;;33.80;31.80;;;;;;6371737;22;20025;-79
2022/05/02 13:05:26;;;;;;;3.83;2.47;;;34.10;31.20;;;;;;6342637;22;19966;-79
2022/05/02 13:07:54;;;;;;;2.55;2.10;;;34.20;31.00;;;;;;6368493;22;20503;-79
2022/05/02 13:10:27;;;;;;;2.92;2.40;;;34.30;30.60;;;;;;6370129;22;20448;-79
2022/05/02 13:13:00;;;;;;;3.35;2.63;;;34.40;30.70;;;;;;6370208;22;20298;-79
2022/05/02 13:15:32;;;;;;;2.47;2.13;;;34.40;30.70;;;;;;6342528;22;20002;-79
2022/05/02 13:18:25;;;;;;;2.40;2.20;;;34.20;31.20;;;;;;6342227;22;20003;-79
2022/05/02 13:21:11;;;;;;;2.47;1.85;;;34.20;31.20;;;;;;6362700;22;20006;-79
2022/05/02 13:23:44;;;;;;;6.28;2.10;;;34.10;31.20;;;;;;6371098;22;19994;-79
2022/05/02 13:26:32;;;;;;;3.03;2.28;;;34.00;31.40;;;;;;6370195;22;20006;-79
2022/05/02 13:29:22;;;;;;;2.78;2.20;;;34.00;31.30;;;;;;6370321;22;20005;-79
2022/05/02 13:32:10;;;;;;;3.47;1.98;;;34.00;31.00;;;;;;6370481;22;20070;-79
2022/05/02 13:34:39;;;;;;;2.85;1.98;;;34.00;30.40;;;;;;6370248;22;20077;-79
2022/05/02 13:37:07;;;;;;;2.90;2.07;;;33.90;31.00;;;;;;6370092;22;20003;-79
2022/05/02 13:40:03;;;;;;;2.55;2.00;;;33.90;30.80;;;;;;6370615;22;20002;-79
2022/05/02 13:42:53;;;;;;;3.28;2.20;;;33.90;30.50;;;;;;6353896;22;20336;-79
2022/05/02 13:45:28;;;;;;;4.72;1.92;;;33.90;30.40;;;;;;6370541;22;20302;-79
2022/05/02 13:47:56;;;;;;;2.65;2.28;;;33.90;30.50;;;;;;6369846;22;20062;-79
2022/05/02 13:50:26;;;;;;;3.88;2.25;;;33.90;30.60;;;;;;6342289;22;20002;-79
2022/05/02 13:53:10;;;;;;;;;;;33.80;30.80;;;;;;6343144;22;20002;-79
2022/05/02 13:56:14;;;;;;;2.20;2.00;;;33.70;30.90;;;;;;6369711;22;19906;-80
2022/05/02 13:58:52;;;;;;;2.13;1.90;;;33.70;31.20;;;;;;6342239;22;20460;-79
2022/05/02 14:01:57;;;;;;;1.67;1.58;;;33.70;30.90;;;;;;6342301;22;20336;-79